createdAt,value
2022-11-15T00:00:55.069Z,2.03
2022-11-15T00:03:24.908Z,2.20
2022-11-15T00:05:52.172Z,2.42
2022-11-15T00:08:19.292Z,1.90
2022-11-15T00:10:56.659Z,2.38
2022-11-15T00:13:23.536Z,2.10
2022-11-15T00:15:50.211Z,2.22
2022-11-15T00:18:17.026Z,2.00
2022-11-15T00:20:43.925Z,1.65
2022-11-15T00:23:10.667Z,2.00
2022-11-15T00:25:37.469Z,1.75
2022-11-15T00:28:04.200Z,2.10
2022-11-15T00:30:31.098Z,2.00
2022-11-15T00:32:57.873Z,2.03
2022-11-15T00:35:24.570Z,1.77
2022-11-15T00:37:51.239Z,1.80
2022-11-15T00:40:17.980Z,2.00
2022-11-15T00:42:44.668Z,2.00
2022-11-15T00:45:11.515Z,2.15
2022-11-15T00:47:38.200Z,1.77
2022-11-15T00:50:05.466Z,1.98
2022-11-15T00:52:32.193Z,2.00
2022-11-15T00:54:58.885Z,1.85
2022-11-15T00:57:25.555Z,2.08
2022-11-15T00:59:52.269Z,2.20
2022-11-15T01:02:18.935Z,2.08
2022-11-15T01:04:45.673Z,1.98
2022-11-15T01:07:12.445Z,1.80
2022-11-15T01:09:39.231Z,1.70
2022-11-15T01:12:06.285Z,2.22
2022-11-15T01:14:32.973Z,1.70
2022-11-15T01:16:59.648Z,1.73
2022-11-15T01:19:26.359Z,1.75
2022-11-15T01:21:53.291Z,2.00
2022-11-15T01:24:20.012Z,1.70
2022-11-15T01:26:46.789Z,1.88
2022-11-15T01:29:13.485Z,1.85
2022-11-15T01:31:40.174Z,1.77
2022-11-15T01:34:07.090Z,1.80
2022-11-15T01:36:33.753Z,1.63
2022-11-15T01:39:00.661Z,1.80
2022-11-15T01:41:30.343Z,1.70
2022-11-15T01:44:18.815Z,1.65
2022-11-15T01:46:48.368Z,1.90
2022-11-15T01:49:21.419Z,1.70
2022-11-15T01:51:48.387Z,1.77
2022-11-15T01:54:17.709Z,1.60
2022-11-15T01:56:48.764Z,1.90
2022-11-15T01:59:15.943Z,1.73
2022-11-15T02:01:42.891Z,1.70
2022-11-15T02:04:18.239Z,1.48
2022-11-15T02:06:45.508Z,1.73
2022-11-15T02:09:12.587Z,1.95
2022-11-15T02:11:39.369Z,1.73
2022-11-15T02:14:06.447Z,1.70
2022-11-15T02:16:47.711Z,1.67
2022-11-15T02:19:32.785Z,1.67
2022-11-15T02:24:26.215Z,2.03
2022-11-15T02:27:08.377Z,1.88
2022-11-15T02:29:56.528Z,1.50
2022-11-15T02:32:33.221Z,2.00
2022-11-15T02:35:25.965Z,1.55
2022-11-15T02:38:07.613Z,1.65
2022-11-15T02:40:49.281Z,1.58
2022-11-15T02:43:38.578Z,1.63
2022-11-15T02:46:19.142Z,1.40
2022-11-15T02:48:46.063Z,1.60
2022-11-15T02:51:13.724Z,1.75
2022-11-15T02:53:40.432Z,1.73
2022-11-15T02:56:10.029Z,1.60
2022-11-15T02:58:52.402Z,1.90
2022-11-15T03:01:21.886Z,2.00
2022-11-15T03:04:10.439Z,1.70
2022-11-15T03:06:50.359Z,1.67
2022-11-15T03:09:53.861Z,1.67
2022-11-15T03:12:34.915Z,1.85
2022-11-15T03:15:03.002Z,1.75
2022-11-15T03:17:31.919Z,1.80
2022-11-15T03:20:00.618Z,2.13
2022-11-15T03:22:30.298Z,1.85
2022-11-15T03:25:03.599Z,1.83
2022-11-15T03:27:34.861Z,1.90
2022-11-15T03:30:05.504Z,1.70
2022-11-15T03:32:38.577Z,1.73
2022-11-15T03:35:22.040Z,1.65
2022-11-15T03:38:14.110Z,1.88
2022-11-15T03:40:42.899Z,2.00
2022-11-15T03:43:28.410Z,1.88
2022-11-15T03:46:21.100Z,1.58
2022-11-15T03:48:51.690Z,1.60
2022-11-15T03:51:18.551Z,1.85
2022-11-15T03:53:45.469Z,1.90
2022-11-15T03:56:12.153Z,2.00
2022-11-15T03:58:38.942Z,1.80
2022-11-15T04:01:05.704Z,1.77
2022-11-15T04:03:32.729Z,1.83
2022-11-15T04:05:59.662Z,1.50
2022-11-15T04:08:26.369Z,1.95
2022-11-15T04:10:53.092Z,1.92
2022-11-15T04:13:19.777Z,1.83
2022-11-15T04:15:46.438Z,1.90
2022-11-15T04:18:13.301Z,1.60
2022-11-15T04:20:58.424Z,1.83
2022-11-15T04:26:16.683Z,1.77
2022-11-15T04:29:02.413Z,1.90
2022-11-15T04:31:29.159Z,1.85
2022-11-15T04:33:56.334Z,1.70
2022-11-15T04:36:41.498Z,1.80
2022-11-15T04:39:08.613Z,2.15
2022-11-15T04:41:35.342Z,2.00
2022-11-15T04:44:02.001Z,1.65
2022-11-15T04:46:28.752Z,1.83
2022-11-15T04:48:58.929Z,1.83
2022-11-15T04:51:26.423Z,1.70
2022-11-15T04:53:53.195Z,1.60
2022-11-15T04:56:20.105Z,1.67
2022-11-15T04:58:49.287Z,1.60
2022-11-15T05:01:16.255Z,1.90
2022-11-15T05:04:02.489Z,1.80
2022-11-15T05:06:29.285Z,1.75
2022-11-15T05:08:56.524Z,1.63
2022-11-15T05:11:23.480Z,1.40
2022-11-15T05:13:50.615Z,1.40
2022-11-15T05:16:17.704Z,1.67
2022-11-15T05:18:44.440Z,1.40
2022-11-15T05:21:13.543Z,1.40
2022-11-15T05:23:41.065Z,1.50
2022-11-15T05:26:09.696Z,1.55
2022-11-15T05:28:37.438Z,1.48
2022-11-15T05:31:08.600Z,1.60
2022-11-15T05:33:36.815Z,1.40
2022-11-15T05:36:06.410Z,1.13
2022-11-15T05:38:33.350Z,1.60
2022-11-15T05:41:01.359Z,1.20
2022-11-15T05:43:28.747Z,1.20
2022-11-15T05:45:55.613Z,1.50
2022-11-15T05:48:22.292Z,1.95
2022-11-15T05:50:49.188Z,1.80
2022-11-15T05:53:17.393Z,1.30
2022-11-15T05:55:44.073Z,1.20
2022-11-15T05:58:10.790Z,1.60
2022-11-15T06:00:37.558Z,1.20
2022-11-15T06:03:04.225Z,1.00
2022-11-15T06:05:30.883Z,1.60
2022-11-15T06:08:00.456Z,1.10
2022-11-15T06:10:27.237Z,1.10
2022-11-15T06:13:01.175Z,1.00
2022-11-15T06:15:28.166Z,0.90
2022-11-15T06:17:58.436Z,1.08
2022-11-15T06:20:30.075Z,1.05
2022-11-15T06:23:04.659Z,0.98
2022-11-15T06:25:31.708Z,0.90
2022-11-15T06:28:00.135Z,0.80
2022-11-15T06:30:27.625Z,0.98
2022-11-15T06:33:02.631Z,0.82
2022-11-15T06:35:29.619Z,1.00
2022-11-15T06:37:56.531Z,0.90
2022-11-15T06:40:23.184Z,0.80
2022-11-15T06:42:49.884Z,0.98
2022-11-15T06:45:16.634Z,1.10
2022-11-15T06:47:49.447Z,0.90
2022-11-15T06:50:16.251Z,0.80
2022-11-15T06:52:42.875Z,0.90
2022-11-15T06:55:09.807Z,1.08
2022-11-15T06:57:37.217Z,1.00
2022-11-15T07:00:05.309Z,1.08
2022-11-15T07:02:32.038Z,0.88
2022-11-15T07:04:58.777Z,1.08
2022-11-15T07:07:25.560Z,1.00
2022-11-15T07:09:52.276Z,1.02
2022-11-15T07:12:18.939Z,0.80
2022-11-15T07:14:45.583Z,1.13
2022-11-15T07:17:12.268Z,0.70
2022-11-15T07:19:38.905Z,0.90
2022-11-15T07:22:05.622Z,0.93
2022-11-15T07:24:32.279Z,1.15
2022-11-15T07:26:59.059Z,1.00
2022-11-15T07:29:25.969Z,1.10
2022-11-15T07:31:52.625Z,1.48
2022-11-15T07:34:19.302Z,1.30
2022-11-15T07:36:45.964Z,1.30
2022-11-15T07:39:13.187Z,1.27
2022-11-15T07:41:39.941Z,1.08
2022-11-15T07:44:07.018Z,1.17
2022-11-15T07:46:33.660Z,1.00
2022-11-15T07:49:00.281Z,1.25
2022-11-15T07:51:26.927Z,1.13
2022-11-15T07:53:53.644Z,1.20
2022-11-15T07:56:21.638Z,1.17
2022-11-15T07:58:48.287Z,0.93
2022-11-15T08:01:15.076Z,0.90
2022-11-15T08:03:41.834Z,1.00
2022-11-15T08:06:08.577Z,0.85
2022-11-15T08:08:35.324Z,1.50
2022-11-15T08:11:02.307Z,0.80
2022-11-15T08:13:30.221Z,0.95
2022-11-15T08:16:01.955Z,0.90
2022-11-15T08:18:28.800Z,0.75
2022-11-15T08:21:00.349Z,0.82
2022-11-15T08:23:27.067Z,0.85
2022-11-15T08:25:53.716Z,0.80
2022-11-15T08:28:20.377Z,0.80
2022-11-15T08:30:47.126Z,0.90
2022-11-15T08:33:15.083Z,0.80
2022-11-15T08:35:43.185Z,1.13
2022-11-15T08:38:10.222Z,1.00
2022-11-15T08:40:36.971Z,0.90
2022-11-15T08:43:04.031Z,0.82
2022-11-15T08:45:31.609Z,0.80
2022-11-15T08:47:58.767Z,0.80
2022-11-15T08:50:25.475Z,0.80
2022-11-15T08:52:52.151Z,0.98
2022-11-15T08:55:19.112Z,0.73
2022-11-15T08:57:46.304Z,0.73
2022-11-15T09:00:14.267Z,0.75
2022-11-15T09:02:41.041Z,0.65
2022-11-15T09:05:08.254Z,0.70
2022-11-15T09:07:35.051Z,1.00
2022-11-15T09:10:01.847Z,0.88
2022-11-15T09:12:28.643Z,0.50
2022-11-15T09:14:56.095Z,0.80
2022-11-15T09:17:24.870Z,0.68
2022-11-15T09:19:52.113Z,1.13
2022-11-15T09:22:19.129Z,0.70
2022-11-15T09:24:45.889Z,0.60
2022-11-15T09:27:13.495Z,0.60
2022-11-15T09:29:40.228Z,0.95
2022-11-15T09:32:07.235Z,2.50
2022-11-15T09:34:34.197Z,1.40
2022-11-15T09:37:01.446Z,1.10
2022-11-15T09:39:28.085Z,0.70
2022-11-15T09:42:19.484Z,0.70
2022-11-15T09:45:23.563Z,1.15
2022-11-15T09:48:05.004Z,0.77
2022-11-15T09:50:51.011Z,0.70
2022-11-15T09:53:57.509Z,0.95
2022-11-15T09:56:27.147Z,0.68
2022-11-15T09:59:08.530Z,0.65
2022-11-15T10:02:05.384Z,0.70
2022-11-15T10:04:32.551Z,0.70
2022-11-15T10:07:13.946Z,0.80
2022-11-15T10:09:58.046Z,0.75
2022-11-15T10:12:26.553Z,0.63
2022-11-15T10:15:03.427Z,0.73
2022-11-15T10:18:19.141Z,0.68
2022-11-15T10:20:52.009Z,0.90
2022-11-15T10:23:22.000Z,0.93
2022-11-15T10:25:48.661Z,0.80
2022-11-15T10:28:31.428Z,0.50
2022-11-15T10:31:01.887Z,0.60
2022-11-15T10:33:34.748Z,0.80
2022-11-15T10:36:13.720Z,0.65
2022-11-15T10:38:49.633Z,0.50
2022-11-15T10:41:34.161Z,0.60
2022-11-15T10:44:08.872Z,0.75
2022-11-15T10:49:21.415Z,0.75
2022-11-15T10:51:54.262Z,0.88
2022-11-15T10:54:31.523Z,0.60
2022-11-15T10:57:00.858Z,0.60
2022-11-15T10:59:33.685Z,0.70
2022-11-15T11:02:40.325Z,0.65
2022-11-15T11:05:27.580Z,0.85
2022-11-15T11:08:00.047Z,0.60
2022-11-15T11:10:50.553Z,0.77
2022-11-15T11:13:24.530Z,0.70
2022-11-15T11:16:14.503Z,0.60
2022-11-15T11:18:57.417Z,0.70
2022-11-15T11:21:40.257Z,0.50
2022-11-15T11:24:45.893Z,0.40
2022-11-15T11:27:21.417Z,0.40
2022-11-15T11:30:17.239Z,0.40
2022-11-15T11:32:55.897Z,0.57
2022-11-15T11:35:31.846Z,0.50
2022-11-15T11:38:43.986Z,0.40
2022-11-15T11:41:29.478Z,0.40
2022-11-15T11:44:33.859Z,0.38
2022-11-15T11:47:01.975Z,0.65
2022-11-15T11:49:47.214Z,0.30
2022-11-15T11:52:29.137Z,0.30
2022-11-15T11:55:17.803Z,0.20
2022-11-15T11:57:49.768Z,0.25
2022-11-15T12:00:25.028Z,0.22
2022-11-15T12:03:04.922Z,0.40
2022-11-15T12:05:48.174Z,0.20
2022-11-15T12:08:33.779Z,0.30
2022-11-15T12:11:08.213Z,0.40
2022-11-15T12:13:37.623Z,0.30
2022-11-15T12:16:36.554Z,0.30
2022-11-15T12:19:04.992Z,0.30
2022-11-15T12:21:57.852Z,0.30
2022-11-15T12:24:33.202Z,0.40
2022-11-15T12:27:26.352Z,0.40
2022-11-15T12:29:57.392Z,0.50
2022-11-15T12:32:27.077Z,0.60
2022-11-15T12:34:54.809Z,0.40
2022-11-15T12:37:33.539Z,0.60
2022-11-15T12:40:23.513Z,0.35
2022-11-15T12:43:11.317Z,0.50
2022-11-15T12:45:40.029Z,0.60
2022-11-15T12:48:18.694Z,0.47
2022-11-15T12:50:51.555Z,0.30
2022-11-15T12:53:24.505Z,0.20
2022-11-15T12:56:09.105Z,0.40
2022-11-15T12:58:50.881Z,0.40
2022-11-15T13:01:33.358Z,0.40
2022-11-15T13:04:08.871Z,0.35
2022-11-15T13:06:46.963Z,0.40
2022-11-15T13:09:43.019Z,0.50
2022-11-15T13:12:15.882Z,0.63
2022-11-15T13:14:48.974Z,0.30
2022-11-15T13:17:53.911Z,0.50
2022-11-15T13:20:29.111Z,0.37
2022-11-15T13:23:15.762Z,0.40
2022-11-15T13:25:51.520Z,0.50
2022-11-15T13:28:18.119Z,1.02
2022-11-15T13:30:47.805Z,1.95
2022-11-15T13:33:36.189Z,1.23
2022-11-15T13:36:09.660Z,1.30
2022-11-15T13:38:38.659Z,1.40
2022-11-15T13:41:22.653Z,0.68
2022-11-15T13:43:51.516Z,1.55
2022-11-15T13:46:26.997Z,1.00
2022-11-15T13:48:59.697Z,0.60
2022-11-15T13:51:45.980Z,0.60
2022-11-15T13:54:25.043Z,0.70
2022-11-15T13:56:56.772Z,0.70
2022-11-15T13:59:35.088Z,0.63
2022-11-15T14:02:13.636Z,0.80
2022-11-15T14:04:51.004Z,0.75
2022-11-15T14:07:23.536Z,0.68
2022-11-15T14:09:50.747Z,0.50
2022-11-15T14:12:33.807Z,0.50
2022-11-15T14:15:20.674Z,0.90
2022-11-15T14:17:50.175Z,1.00
2022-11-15T14:20:28.620Z,0.80
2022-11-15T14:22:57.251Z,0.90
2022-11-15T14:25:28.950Z,1.10
2022-11-15T14:28:10.944Z,0.90
2022-11-15T14:30:37.769Z,1.10
2022-11-15T14:33:18.595Z,1.05
2022-11-15T14:35:45.338Z,2.05
2022-11-15T14:38:11.984Z,1.67
2022-11-15T14:40:38.851Z,1.70
2022-11-15T14:43:05.517Z,1.60
2022-11-15T14:45:32.333Z,1.50
2022-11-15T14:47:59.197Z,1.90
2022-11-15T14:50:25.920Z,1.63
2022-11-15T14:52:53.144Z,1.60
2022-11-15T14:55:26.042Z,1.65
2022-11-15T14:57:55.428Z,2.80
2022-11-15T15:00:22.780Z,2.70
2022-11-15T15:02:50.461Z,2.75
2022-11-15T15:05:21.614Z,2.10
2022-11-15T15:07:48.865Z,2.08
2022-11-15T15:13:04.137Z,1.75
2022-11-15T15:15:36.298Z,2.10
2022-11-15T15:18:04.874Z,2.03
2022-11-15T15:20:35.974Z,1.80
2022-11-15T15:23:02.655Z,1.98
2022-11-15T15:25:33.055Z,2.08
2022-11-15T15:28:00.287Z,2.10
2022-11-15T15:30:28.935Z,2.20
2022-11-15T15:32:55.970Z,2.40
2022-11-15T15:35:23.108Z,2.58
2022-11-15T15:37:50.921Z,2.15
2022-11-15T15:40:22.616Z,2.22
2022-11-15T15:42:49.896Z,2.38
2022-11-15T15:45:17.824Z,2.50
2022-11-15T15:47:45.388Z,2.60
2022-11-15T15:50:25.213Z,2.25
2022-11-15T15:52:53.709Z,2.70
2022-11-15T15:55:20.947Z,2.88
2022-11-15T15:57:48.047Z,2.20
2022-11-15T16:00:15.843Z,2.50
2022-11-15T16:02:42.728Z,1.70
2022-11-15T16:05:10.306Z,1.75
2022-11-15T16:07:37.538Z,1.80
2022-11-15T16:10:15.498Z,1.60
2022-11-15T16:12:42.197Z,1.67
2022-11-15T16:15:09.532Z,1.65
2022-11-15T16:17:38.751Z,1.90
2022-11-15T16:20:05.949Z,1.98
2022-11-15T16:22:32.644Z,1.50
2022-11-15T16:24:59.347Z,1.98
2022-11-15T16:27:26.053Z,2.08
2022-11-15T16:29:52.714Z,1.73
2022-11-15T16:32:19.468Z,2.20
2022-11-15T16:34:48.984Z,1.73
2022-11-15T16:37:25.260Z,1.60
2022-11-15T16:39:53.954Z,1.80
2022-11-15T16:42:23.857Z,1.95
2022-11-15T16:44:50.550Z,2.25
2022-11-15T16:47:20.591Z,3.00
2022-11-15T16:49:47.774Z,2.10
2022-11-15T16:52:18.760Z,1.80
2022-11-15T16:54:47.859Z,2.22
2022-11-15T16:57:14.502Z,1.98
2022-11-15T16:59:41.170Z,1.60
2022-11-15T17:02:12.652Z,1.83
2022-11-15T17:04:39.572Z,2.10
2022-11-15T17:07:06.837Z,2.10
2022-11-15T17:09:34.280Z,1.88
2022-11-15T17:12:00.974Z,1.88
2022-11-15T17:14:27.643Z,1.75
2022-11-15T17:16:57.006Z,1.77
2022-11-15T17:19:23.715Z,1.95
2022-11-15T17:21:50.485Z,1.55
2022-11-15T17:24:17.551Z,1.77
2022-11-15T17:26:44.352Z,1.30
2022-11-15T17:29:11.150Z,1.35
2022-11-15T17:31:38.781Z,1.60
2022-11-15T17:34:06.449Z,1.85
2022-11-15T17:36:34.009Z,1.60
2022-11-15T17:39:00.741Z,1.73
2022-11-15T17:41:29.045Z,1.80
2022-11-15T17:43:59.940Z,1.60
2022-11-15T17:46:27.795Z,1.58
2022-11-15T17:48:55.838Z,1.73
2022-11-15T17:51:24.136Z,1.77
2022-11-15T17:53:51.483Z,2.33
2022-11-15T17:56:20.418Z,3.33
2022-11-15T17:58:55.118Z,2.15
2022-11-15T18:03:56.585Z,2.22
2022-11-15T18:06:24.469Z,2.85
2022-11-15T18:08:52.422Z,2.20
2022-11-15T18:11:24.673Z,2.15
2022-11-15T18:13:55.400Z,3.30
2022-11-15T18:16:25.287Z,2.40
2022-11-15T18:18:52.696Z,5.65
2022-11-15T18:21:24.475Z,2.08
2022-11-15T18:23:58.745Z,2.28
2022-11-15T18:26:27.721Z,1.73
2022-11-15T18:29:02.663Z,1.85
2022-11-15T18:31:30.777Z,3.83
2022-11-15T18:33:59.486Z,2.38
2022-11-15T18:36:28.292Z,2.67
2022-11-15T18:38:56.412Z,2.40
2022-11-15T18:41:30.679Z,1.60
2022-11-15T18:43:59.061Z,1.05
2022-11-15T18:46:28.208Z,1.40
2022-11-15T18:48:55.425Z,1.40
2022-11-15T18:51:25.147Z,1.40
2022-11-15T18:53:56.573Z,1.23
2022-11-15T18:56:25.446Z,1.77
2022-11-15T18:58:54.633Z,1.40
2022-11-15T19:01:26.239Z,1.40
2022-11-15T19:03:57.289Z,1.42
2022-11-15T19:06:26.577Z,1.40
2022-11-15T19:08:58.616Z,1.88
2022-11-15T19:11:28.899Z,1.92
2022-11-15T19:14:04.021Z,1.55
2022-11-15T19:16:36.251Z,1.60
2022-11-15T19:19:06.345Z,1.52
2022-11-15T19:21:34.428Z,1.60
2022-11-15T19:24:01.864Z,1.65
2022-11-15T19:26:29.432Z,1.70
2022-11-15T19:28:58.194Z,2.00
2022-11-15T19:31:26.084Z,1.77
2022-11-15T19:33:53.540Z,1.67
2022-11-15T19:36:40.942Z,2.00
2022-11-15T19:39:09.981Z,2.15
2022-11-15T19:41:38.717Z,2.10
2022-11-15T19:44:06.545Z,2.05
2022-11-15T19:46:34.164Z,1.90
2022-11-15T19:49:00.958Z,1.77
2022-11-15T19:51:30.336Z,2.03
2022-11-15T19:54:06.147Z,2.20
2022-11-15T19:56:34.351Z,2.30
2022-11-15T19:59:01.084Z,2.15
2022-11-15T20:01:30.606Z,1.80
2022-11-15T20:03:59.527Z,2.40
2022-11-15T20:06:34.434Z,1.83
2022-11-15T20:09:01.121Z,2.25
2022-11-15T20:11:30.538Z,1.95
2022-11-15T20:13:58.588Z,2.38
2022-11-15T20:16:25.912Z,2.13
2022-11-15T20:18:53.144Z,2.15
2022-11-15T20:21:20.430Z,2.38
2022-11-15T20:23:47.837Z,2.08
2022-11-15T20:26:15.173Z,2.00
2022-11-15T20:28:42.435Z,2.40
2022-11-15T20:31:09.931Z,2.50
2022-11-15T20:33:36.671Z,2.10
2022-11-15T20:36:11.531Z,2.72
2022-11-15T20:38:38.363Z,2.30
2022-11-15T20:41:05.430Z,2.17
2022-11-15T20:43:32.184Z,2.60
2022-11-15T20:45:58.949Z,3.60
2022-11-15T20:48:25.712Z,2.92
2022-11-15T20:50:52.420Z,2.20
2022-11-15T20:53:20.282Z,2.28
2022-11-15T20:55:48.877Z,2.10
2022-11-15T20:58:16.712Z,1.90
2022-11-15T21:00:44.810Z,2.20
2022-11-15T21:03:13.784Z,2.33
2022-11-15T21:05:44.691Z,2.03
2022-11-15T21:08:12.304Z,2.10
2022-11-15T21:10:59.059Z,1.90
2022-11-15T21:13:26.698Z,1.92
2022-11-15T21:15:56.912Z,1.85
2022-11-15T21:18:24.024Z,2.00
2022-11-15T21:20:50.845Z,1.70
2022-11-15T21:23:17.611Z,1.80
2022-11-15T21:25:50.277Z,1.85
2022-11-15T21:28:17.566Z,1.70
2022-11-15T21:30:54.862Z,2.00
2022-11-15T21:33:23.753Z,1.83
2022-11-15T21:35:51.628Z,2.08
2022-11-15T21:38:18.426Z,2.10
2022-11-15T21:40:45.916Z,1.67
2022-11-15T21:43:12.718Z,2.10
2022-11-15T21:45:39.403Z,1.98
2022-11-15T21:48:06.462Z,2.10
2022-11-15T21:50:33.438Z,1.98
2022-11-15T21:53:00.621Z,2.20
2022-11-15T21:55:27.291Z,1.90
2022-11-15T21:57:54.343Z,1.73
2022-11-15T22:00:39.544Z,1.80
2022-11-15T22:03:06.214Z,1.70
2022-11-15T22:05:32.928Z,1.67
2022-11-15T22:07:59.554Z,1.60
2022-11-15T22:10:26.249Z,1.70
2022-11-15T22:12:52.933Z,1.70
2022-11-15T22:15:19.659Z,1.40
2022-11-15T22:17:58.478Z,1.58
2022-11-15T22:23:12.363Z,1.50
2022-11-15T22:25:39.083Z,1.60
2022-11-15T22:28:05.766Z,1.35
2022-11-15T22:30:32.527Z,1.45
2022-11-15T22:32:59.320Z,1.38
2022-11-15T22:35:26.016Z,1.30
2022-11-15T22:37:52.843Z,1.60
2022-11-15T22:40:19.697Z,1.27
2022-11-15T22:42:46.454Z,1.52
2022-11-15T22:45:13.166Z,1.60
2022-11-15T22:47:39.850Z,1.45
2022-11-15T22:50:07.072Z,1.50
2022-11-15T22:52:33.791Z,1.35
2022-11-15T22:55:00.681Z,1.80
2022-11-15T22:57:27.439Z,1.33
2022-11-15T22:59:54.189Z,1.50
2022-11-15T23:02:20.857Z,1.40
2022-11-15T23:04:47.778Z,1.30
2022-11-15T23:07:14.552Z,1.50
2022-11-15T23:09:41.281Z,1.58
2022-11-15T23:12:29.465Z,1.58
2022-11-15T23:14:56.162Z,1.60
2022-11-15T23:17:23.000Z,1.42
2022-11-15T23:19:49.683Z,1.40
2022-11-15T23:22:45.733Z,1.20
2022-11-15T23:25:12.489Z,1.80
2022-11-15T23:27:39.433Z,1.45
2022-11-15T23:30:25.248Z,1.60
2022-11-15T23:33:10.852Z,1.90
2022-11-15T23:35:37.530Z,1.70
2022-11-15T23:38:04.208Z,1.70
2022-11-15T23:40:30.907Z,1.60
2022-11-15T23:42:58.187Z,1.75
2022-11-15T23:45:24.869Z,1.50
2022-11-15T23:47:54.713Z,1.80
2022-11-15T23:50:25.238Z,1.73
2022-11-15T23:52:51.924Z,1.60
2022-11-15T23:55:18.644Z,1.50
2022-11-15T23:57:45.329Z,1.50
